sensor_id;sensor_type;location;lat;lon;timestamp;P1;durP1;ratioP1;P2;durP2;ratioP2
31112;SDS011;17763;48.730;9.136;2024-01-30T00:02:20;12.55;;;8.20;;
31112;SDS011;17763;48.730;9.136;2024-01-30T00:04:45;13.43;;;7.85;;
31112;SDS011;17763;48.730;9.136;2024-01-30T00:07:11;11.30;;;7.88;;
31112;SDS011;17763;48.730;9.136;2024-01-30T00:09:39;7.68;;;6.65;;
31112;SDS011;17763;48.730;9.136;2024-01-30T00:12:07;9.40;;;7.80;;
31112;SDS011;17763;48.730;9.136;2024-01-30T00:14:32;12.68;;;7.90;;
31112;SDS011;17763;48.730;9.136;2024-01-30T00:17:00;8.85;;;6.90;;
31112;SDS011;17763;48.730;9.136;2024-01-30T00:19:26;10.98;;;7.90;;
31112;SDS011;17763;48.730;9.136;2024-01-30T00:21:51;10.00;;;7.30;;
31112;SDS011;17763;48.730;9.136;2024-01-30T00:24:17;11.02;;;7.85;;
31112;SDS011;17763;48.730;9.136;2024-01-30T00:26:47;10.10;;;8.13;;
31112;SDS011;17763;48.730;9.136;2024-01-30T00:29:13;8.25;;;7.28;;
31112;SDS011;17763;48.730;9.136;2024-01-30T00:31:46;8.30;;;7.40;;
31112;SDS011;17763;48.730;9.136;2024-01-30T00:34:17;10.43;;;7.35;;
31112;SDS011;17763;48.730;9.136;2024-01-30T00:36:42;9.35;;;7.85;;
31112;SDS011;17763;48.730;9.136;2024-01-30T00:39:08;9.30;;;7.38;;
31112;SDS011;17763;48.730;9.136;2024-01-30T00:41:34;10.57;;;7.57;;
31112;SDS011;17763;48.730;9.136;2024-01-30T00:44:00;8.27;;;7.07;;
31112;SDS011;17763;48.730;9.136;2024-01-30T00:46:26;8.98;;;7.97;;
31112;SDS011;17763;48.730;9.136;2024-01-30T00:48:53;11.50;;;7.78;;
31112;SDS011;17763;48.730;9.136;2024-01-30T00:51:19;9.77;;;6.78;;
31112;SDS011;17763;48.730;9.136;2024-01-30T00:53:47;8.55;;;7.65;;
31112;SDS011;17763;48.730;9.136;2024-01-30T00:56:13;8.57;;;7.68;;
31112;SDS011;17763;48.730;9.136;2024-01-30T00:58:39;9.55;;;7.57;;
31112;SDS011;17763;48.730;9.136;2024-01-30T01:01:07;8.25;;;7.20;;
31112;SDS011;17763;48.730;9.136;2024-01-30T01:03:32;8.88;;;7.18;;
31112;SDS011;17763;48.730;9.136;2024-01-30T01:05:58;10.93;;;6.93;;
31112;SDS011;17763;48.730;9.136;2024-01-30T01:08:24;9.38;;;7.57;;
31112;SDS011;17763;48.730;9.136;2024-01-30T01:10:50;8.90;;;7.10;;
31112;SDS011;17763;48.730;9.136;2024-01-30T01:13:18;10.95;;;7.43;;
31112;SDS011;17763;48.730;9.136;2024-01-30T01:15:44;8.27;;;6.47;;
31112;SDS011;17763;48.730;9.136;2024-01-30T01:18:10;8.00;;;6.85;;
31112;SDS011;17763;48.730;9.136;2024-01-30T01:20:38;8.88;;;7.15;;
31112;SDS011;17763;48.730;9.136;2024-01-30T01:23:06;7.68;;;6.80;;
31112;SDS011;17763;48.730;9.136;2024-01-30T01:25:34;11.07;;;7.20;;
31112;SDS011;17763;48.730;9.136;2024-01-30T01:28:00;12.45;;;8.23;;
31112;SDS011;17763;48.730;9.136;2024-01-30T01:30:26;8.00;;;6.70;;
31112;SDS011;17763;48.730;9.136;2024-01-30T01:32:54;7.63;;;6.53;;
31112;SDS011;17763;48.730;9.136;2024-01-30T01:35:26;9.77;;;7.05;;
31112;SDS011;17763;48.730;9.136;2024-01-30T01:37:54;8.32;;;6.55;;
31112;SDS011;17763;48.730;9.136;2024-01-30T01:40:24;8.00;;;6.95;;
31112;SDS011;17763;48.730;9.136;2024-01-30T01:42:51;9.73;;;6.38;;
31112;SDS011;17763;48.730;9.136;2024-01-30T01:45:23;8.98;;;6.53;;
31112;SDS011;17763;48.730;9.136;2024-01-30T01:47:51;9.80;;;7.70;;
31112;SDS011;17763;48.730;9.136;2024-01-30T01:50:20;7.05;;;6.35;;
31112;SDS011;17763;48.730;9.136;2024-01-30T01:52:50;9.98;;;8.38;;
31112;SDS011;17763;48.730;9.136;2024-01-30T01:55:16;13.00;;;9.43;;
31112;SDS011;17763;48.730;9.136;2024-01-30T01:57:46;12.52;;;9.68;;
31112;SDS011;17763;48.730;9.136;2024-01-30T02:00:12;14.85;;;10.10;;
31112;SDS011;17763;48.730;9.136;2024-01-30T02:02:38;15.55;;;10.00;;
31112;SDS011;17763;48.730;9.136;2024-01-30T02:05:04;12.38;;;9.85;;
31112;SDS011;17763;48.730;9.136;2024-01-30T02:07:30;11.05;;;9.05;;
31112;SDS011;17763;48.730;9.136;2024-01-30T02:09:58;11.63;;;9.13;;
31112;SDS011;17763;48.730;9.136;2024-01-30T02:12:26;10.63;;;8.10;;
31112;SDS011;17763;48.730;9.136;2024-01-30T02:14:52;11.32;;;8.45;;
31112;SDS011;17763;48.730;9.136;2024-01-30T02:17:22;12.18;;;9.25;;
31112;SDS011;17763;48.730;9.136;2024-01-30T02:19:49;12.60;;;8.75;;
31112;SDS011;17763;48.730;9.136;2024-01-30T02:22:14;14.73;;;9.18;;
31112;SDS011;17763;48.730;9.136;2024-01-30T02:24:42;12.38;;;9.35;;
31112;SDS011;17763;48.730;9.136;2024-01-30T02:27:08;11.35;;;9.05;;
31112;SDS011;17763;48.730;9.136;2024-01-30T02:29:34;12.00;;;8.70;;
31112;SDS011;17763;48.730;9.136;2024-01-30T02:31:59;12.13;;;9.18;;
31112;SDS011;17763;48.730;9.136;2024-01-30T02:34:27;11.63;;;8.45;;
31112;SDS011;17763;48.730;9.136;2024-01-30T02:36:53;11.05;;;8.52;;
31112;SDS011;17763;48.730;9.136;2024-01-30T02:39:18;10.30;;;8.60;;
31112;SDS011;17763;48.730;9.136;2024-01-30T02:41:50;10.20;;;8.70;;
31112;SDS011;17763;48.730;9.136;2024-01-30T02:44:15;10.75;;;8.35;;
31112;SDS011;17763;48.730;9.136;2024-01-30T02:46:41;13.07;;;9.20;;
31112;SDS011;17763;48.730;9.136;2024-01-30T02:49:07;10.70;;;8.70;;
31112;SDS011;17763;48.730;9.136;2024-01-30T02:51:32;11.40;;;8.68;;
31112;SDS011;17763;48.730;9.136;2024-01-30T02:53:58;12.75;;;9.55;;
31112;SDS011;17763;48.730;9.136;2024-01-30T02:56:24;12.98;;;10.07;;
31112;SDS011;17763;48.730;9.136;2024-01-30T02:58:54;10.25;;;8.80;;
31112;SDS011;17763;48.730;9.136;2024-01-30T03:01:22;14.75;;;9.95;;
31112;SDS011;17763;48.730;9.136;2024-01-30T03:03:49;15.73;;;10.02;;
31112;SDS011;17763;48.730;9.136;2024-01-30T03:06:15;14.00;;;10.40;;
31112;SDS011;17763;48.730;9.136;2024-01-30T03:08:45;14.02;;;10.23;;
31112;SDS011;17763;48.730;9.136;2024-01-30T03:11:11;17.35;;;10.30;;
31112;SDS011;17763;48.730;9.136;2024-01-30T03:13:36;13.88;;;9.55;;
31112;SDS011;17763;48.730;9.136;2024-01-30T03:16:02;12.35;;;9.48;;
31112;SDS011;17763;48.730;9.136;2024-01-30T03:18:28;12.45;;;9.50;;
31112;SDS011;17763;48.730;9.136;2024-01-30T03:20:56;15.20;;;10.00;;
31112;SDS011;17763;48.730;9.136;2024-01-30T03:23:22;15.25;;;9.73;;
31112;SDS011;17763;48.730;9.136;2024-01-30T03:25:49;12.15;;;9.18;;
31112;SDS011;17763;48.730;9.136;2024-01-30T03:28:15;10.85;;;8.85;;
31112;SDS011;17763;48.730;9.136;2024-01-30T03:30:41;12.07;;;9.60;;
31112;SDS011;17763;48.730;9.136;2024-01-30T03:33:06;12.60;;;9.60;;
31112;SDS011;17763;48.730;9.136;2024-01-30T03:35:32;14.48;;;9.18;;
31112;SDS011;17763;48.730;9.136;2024-01-30T03:37:58;11.98;;;10.32;;
31112;SDS011;17763;48.730;9.136;2024-01-30T03:40:23;18.20;;;9.57;;
31112;SDS011;17763;48.730;9.136;2024-01-30T03:42:49;14.20;;;10.20;;
31112;SDS011;17763;48.730;9.136;2024-01-30T03:45:15;14.02;;;9.65;;
31112;SDS011;17763;48.730;9.136;2024-01-30T03:47:43;13.60;;;10.25;;
31112;SDS011;17763;48.730;9.136;2024-01-30T03:50:11;14.38;;;9.95;;
31112;SDS011;17763;48.730;9.136;2024-01-30T03:52:37;15.10;;;10.98;;
31112;SDS011;17763;48.730;9.136;2024-01-30T03:55:05;18.42;;;9.23;;
31112;SDS011;17763;48.730;9.136;2024-01-30T03:57:34;11.63;;;9.68;;
31112;SDS011;17763;48.730;9.136;2024-01-30T03:59:59;11.98;;;9.73;;
31112;SDS011;17763;48.730;9.136;2024-01-30T04:02:25;12.23;;;8.82;;
31112;SDS011;17763;48.730;9.136;2024-01-30T04:04:51;16.52;;;10.43;;
31112;SDS011;17763;48.730;9.136;2024-01-30T04:07:19;13.85;;;10.50;;
31112;SDS011;17763;48.730;9.136;2024-01-30T04:09:44;11.50;;;9.57;;
31112;SDS011;17763;48.730;9.136;2024-01-30T04:12:10;14.68;;;9.27;;
31112;SDS011;17763;48.730;9.136;2024-01-30T04:14:37;11.52;;;9.77;;
31112;SDS011;17763;48.730;9.136;2024-01-30T04:17:05;12.32;;;9.60;;
31112;SDS011;17763;48.730;9.136;2024-01-30T04:19:31;12.73;;;10.25;;
31112;SDS011;17763;48.730;9.136;2024-01-30T04:22:02;13.65;;;9.65;;
31112;SDS011;17763;48.730;9.136;2024-01-30T04:24:30;12.75;;;9.68;;
31112;SDS011;17763;48.730;9.136;2024-01-30T04:26:55;16.65;;;11.13;;
31112;SDS011;17763;48.730;9.136;2024-01-30T04:29:21;14.98;;;11.10;;
31112;SDS011;17763;48.730;9.136;2024-01-30T04:31:47;13.10;;;10.20;;
31112;SDS011;17763;48.730;9.136;2024-01-30T04:34:13;16.63;;;11.52;;
31112;SDS011;17763;48.730;9.136;2024-01-30T04:36:43;14.35;;;10.57;;
31112;SDS011;17763;48.730;9.136;2024-01-30T04:39:10;16.23;;;12.07;;
31112;SDS011;17763;48.730;9.136;2024-01-30T04:41:36;16.15;;;11.32;;
31112;SDS011;17763;48.730;9.136;2024-01-30T04:44:02;17.75;;;12.70;;
31112;SDS011;17763;48.730;9.136;2024-01-30T04:46:27;17.15;;;12.68;;
31112;SDS011;17763;48.730;9.136;2024-01-30T04:48:53;16.17;;;10.82;;
31112;SDS011;17763;48.730;9.136;2024-01-30T04:51:19;13.77;;;10.93;;
31112;SDS011;17763;48.730;9.136;2024-01-30T04:53:47;15.95;;;11.30;;
31112;SDS011;17763;48.730;9.136;2024-01-30T04:56:12;14.20;;;10.63;;
31112;SDS011;17763;48.730;9.136;2024-01-30T04:58:38;14.48;;;11.18;;
31112;SDS011;17763;48.730;9.136;2024-01-30T05:01:06;11.88;;;10.13;;
31112;SDS011;17763;48.730;9.136;2024-01-30T05:03:35;16.38;;;11.95;;
31112;SDS011;17763;48.730;9.136;2024-01-30T05:06:01;16.27;;;10.80;;
31112;SDS011;17763;48.730;9.136;2024-01-30T05:08:26;13.43;;;10.98;;
31112;SDS011;17763;48.730;9.136;2024-01-30T05:10:54;15.75;;;11.15;;
31112;SDS011;17763;48.730;9.136;2024-01-30T05:13:23;14.98;;;11.52;;
31112;SDS011;17763;48.730;9.136;2024-01-30T05:15:48;12.27;;;10.32;;
31112;SDS011;17763;48.730;9.136;2024-01-30T05:18:16;17.63;;;11.52;;
31112;SDS011;17763;48.730;9.136;2024-01-30T05:20:47;15.18;;;12.30;;
31112;SDS011;17763;48.730;9.136;2024-01-30T05:23:12;17.27;;;12.68;;
31112;SDS011;17763;48.730;9.136;2024-01-30T05:25:42;14.57;;;11.20;;
31112;SDS011;17763;48.730;9.136;2024-01-30T05:28:10;16.08;;;12.00;;
31112;SDS011;17763;48.730;9.136;2024-01-30T05:30:35;17.30;;;11.18;;
31112;SDS011;17763;48.730;9.136;2024-01-30T05:33:01;17.67;;;12.45;;
31112;SDS011;17763;48.730;9.136;2024-01-30T05:35:29;25.35;;;16.35;;
31112;SDS011;17763;48.730;9.136;2024-01-30T05:37:55;30.60;;;18.90;;
31112;SDS011;17763;48.730;9.136;2024-01-30T05:40:21;27.30;;;17.73;;
31112;SDS011;17763;48.730;9.136;2024-01-30T05:42:47;29.13;;;17.98;;
31112;SDS011;17763;48.730;9.136;2024-01-30T05:45:13;22.42;;;15.73;;
31112;SDS011;17763;48.730;9.136;2024-01-30T05:47:38;20.48;;;13.80;;
31112;SDS011;17763;48.730;9.136;2024-01-30T05:50:04;18.35;;;12.43;;
31112;SDS011;17763;48.730;9.136;2024-01-30T05:52:31;16.33;;;10.98;;
31112;SDS011;17763;48.730;9.136;2024-01-30T05:54:57;17.30;;;11.57;;
31112;SDS011;17763;48.730;9.136;2024-01-30T05:57:22;14.80;;;11.48;;
31112;SDS011;17763;48.730;9.136;2024-01-30T05:59:48;17.63;;;12.18;;
31112;SDS011;17763;48.730;9.136;2024-01-30T06:02:13;19.70;;;12.68;;
31112;SDS011;17763;48.730;9.136;2024-01-30T06:04:39;18.27;;;13.10;;
31112;SDS011;17763;48.730;9.136;2024-01-30T06:07:05;15.95;;;12.48;;
31112;SDS011;17763;48.730;9.136;2024-01-30T06:09:31;19.48;;;13.20;;
31112;SDS011;17763;48.730;9.136;2024-01-30T06:11:59;16.55;;;11.77;;
31112;SDS011;17763;48.730;9.136;2024-01-30T06:14:25;15.25;;;12.60;;
31112;SDS011;17763;48.730;9.136;2024-01-30T06:16:55;16.85;;;12.73;;
31112;SDS011;17763;48.730;9.136;2024-01-30T06:19:21;20.02;;;13.38;;
31112;SDS011;17763;48.730;9.136;2024-01-30T06:21:47;21.45;;;13.57;;
31112;SDS011;17763;48.730;9.136;2024-01-30T06:24:15;14.90;;;12.82;;
31112;SDS011;17763;48.730;9.136;2024-01-30T06:26:42;17.85;;;12.95;;
31112;SDS011;17763;48.730;9.136;2024-01-30T06:29:07;17.88;;;12.75;;
31112;SDS011;17763;48.730;9.136;2024-01-30T06:31:39;18.17;;;13.23;;
31112;SDS011;17763;48.730;9.136;2024-01-30T06:34:10;18.80;;;12.85;;
31112;SDS011;17763;48.730;9.136;2024-01-30T06:36:37;18.10;;;12.27;;
31112;SDS011;17763;48.730;9.136;2024-01-30T06:39:05;19.27;;;12.25;;
31112;SDS011;17763;48.730;9.136;2024-01-30T06:41:30;15.60;;;11.90;;
31112;SDS011;17763;48.730;9.136;2024-01-30T06:43:56;16.13;;;11.52;;
31112;SDS011;17763;48.730;9.136;2024-01-30T06:46:22;16.50;;;11.85;;
31112;SDS011;17763;48.730;9.136;2024-01-30T06:48:48;20.60;;;11.80;;
31112;SDS011;17763;48.730;9.136;2024-01-30T06:51:13;21.30;;;13.77;;
31112;SDS011;17763;48.730;9.136;2024-01-30T06:53:39;31.63;;;19.70;;
31112;SDS011;17763;48.730;9.136;2024-01-30T06:56:05;35.13;;;20.58;;
31112;SDS011;17763;48.730;9.136;2024-01-30T06:58:31;30.17;;;18.42;;
31112;SDS011;17763;48.730;9.136;2024-01-30T07:00:57;28.13;;;17.60;;
31112;SDS011;17763;48.730;9.136;2024-01-30T07:03:23;26.00;;;16.35;;
31112;SDS011;17763;48.730;9.136;2024-01-30T07:05:49;34.13;;;17.90;;
31112;SDS011;17763;48.730;9.136;2024-01-30T07:08:15;21.52;;;15.05;;
31112;SDS011;17763;48.730;9.136;2024-01-30T07:10:44;22.88;;;14.27;;
31112;SDS011;17763;48.730;9.136;2024-01-30T07:13:13;20.27;;;13.00;;
31112;SDS011;17763;48.730;9.136;2024-01-30T07:18:07;20.60;;;12.35;;
31112;SDS011;17763;48.730;9.136;2024-01-30T07:20:32;16.13;;;11.65;;
31112;SDS011;17763;48.730;9.136;2024-01-30T07:22:59;16.52;;;10.95;;
31112;SDS011;17763;48.730;9.136;2024-01-30T07:25:24;16.55;;;12.38;;
31112;SDS011;17763;48.730;9.136;2024-01-30T07:27:54;16.13;;;11.07;;
31112;SDS011;17763;48.730;9.136;2024-01-30T07:30:21;15.10;;;11.07;;
31112;SDS011;17763;48.730;9.136;2024-01-30T07:32:48;18.02;;;12.05;;
31112;SDS011;17763;48.730;9.136;2024-01-30T07:35:13;15.93;;;12.27;;
31112;SDS011;17763;48.730;9.136;2024-01-30T07:37:39;20.88;;;13.65;;
31112;SDS011;17763;48.730;9.136;2024-01-30T07:40:07;19.60;;;13.82;;
31112;SDS011;17763;48.730;9.136;2024-01-30T07:42:36;19.38;;;14.13;;
31112;SDS011;17763;48.730;9.136;2024-01-30T07:45:01;24.80;;;14.90;;
31112;SDS011;17763;48.730;9.136;2024-01-30T07:47:29;20.75;;;13.68;;
31112;SDS011;17763;48.730;9.136;2024-01-30T07:49:55;29.17;;;15.25;;
31112;SDS011;17763;48.730;9.136;2024-01-30T07:52:21;24.45;;;14.63;;
31112;SDS011;17763;48.730;9.136;2024-01-30T07:54:46;20.35;;;14.05;;
31112;SDS011;17763;48.730;9.136;2024-01-30T07:57:12;20.38;;;13.57;;
31112;SDS011;17763;48.730;9.136;2024-01-30T07:59:40;21.15;;;14.40;;
31112;SDS011;17763;48.730;9.136;2024-01-30T08:02:12;22.58;;;15.10;;
31112;SDS011;17763;48.730;9.136;2024-01-30T08:04:38;24.83;;;14.80;;
31112;SDS011;17763;48.730;9.136;2024-01-30T08:07:04;22.23;;;14.65;;
31112;SDS011;17763;48.730;9.136;2024-01-30T08:09:30;21.00;;;14.07;;
31112;SDS011;17763;48.730;9.136;2024-01-30T08:11:55;22.40;;;15.35;;
31112;SDS011;17763;48.730;9.136;2024-01-30T08:14:21;22.35;;;15.23;;
31112;SDS011;17763;48.730;9.136;2024-01-30T08:16:47;26.23;;;15.95;;
31112;SDS011;17763;48.730;9.136;2024-01-30T08:19:14;22.17;;;14.75;;
31112;SDS011;17763;48.730;9.136;2024-01-30T08:21:40;23.08;;;14.38;;
31112;SDS011;17763;48.730;9.136;2024-01-30T08:24:06;23.23;;;15.63;;
31112;SDS011;17763;48.730;9.136;2024-01-30T08:26:32;24.10;;;16.40;;
31112;SDS011;17763;48.730;9.136;2024-01-30T08:29:03;25.77;;;16.10;;
31112;SDS011;17763;48.730;9.136;2024-01-30T08:31:29;23.50;;;15.40;;
31112;SDS011;17763;48.730;9.136;2024-01-30T08:33:54;20.48;;;13.52;;
31112;SDS011;17763;48.730;9.136;2024-01-30T08:36:20;21.20;;;15.13;;
31112;SDS011;17763;48.730;9.136;2024-01-30T08:38:46;22.30;;;14.43;;
31112;SDS011;17763;48.730;9.136;2024-01-30T08:41:12;24.08;;;13.57;;
31112;SDS011;17763;48.730;9.136;2024-01-30T08:43:37;21.15;;;13.13;;
31112;SDS011;17763;48.730;9.136;2024-01-30T08:46:03;17.27;;;13.30;;
31112;SDS011;17763;48.730;9.136;2024-01-30T08:48:29;23.73;;;13.25;;
31112;SDS011;17763;48.730;9.136;2024-01-30T08:50:55;22.95;;;13.15;;
31112;SDS011;17763;48.730;9.136;2024-01-30T08:53:20;21.40;;;13.30;;
31112;SDS011;17763;48.730;9.136;2024-01-30T08:55:46;24.13;;;13.77;;
31112;SDS011;17763;48.730;9.136;2024-01-30T08:58:12;21.50;;;14.68;;
31112;SDS011;17763;48.730;9.136;2024-01-30T09:00:38;24.48;;;15.70;;
31112;SDS011;17763;48.730;9.136;2024-01-30T09:03:06;22.58;;;14.30;;
31112;SDS011;17763;48.730;9.136;2024-01-30T09:05:32;22.48;;;14.20;;
31112;SDS011;17763;48.730;9.136;2024-01-30T09:07:57;16.83;;;11.55;;
31112;SDS011;17763;48.730;9.136;2024-01-30T09:10:23;17.98;;;12.77;;
31112;SDS011;17763;48.730;9.136;2024-01-30T09:12:51;19.38;;;12.57;;
31112;SDS011;17763;48.730;9.136;2024-01-30T09:15:17;17.20;;;11.90;;
31112;SDS011;17763;48.730;9.136;2024-01-30T09:17:44;17.50;;;11.40;;
31112;SDS011;17763;48.730;9.136;2024-01-30T09:20:10;14.38;;;9.85;;
31112;SDS011;17763;48.730;9.136;2024-01-30T09:22:36;18.08;;;11.20;;
31112;SDS011;17763;48.730;9.136;2024-01-30T09:25:06;16.15;;;10.27;;
31112;SDS011;17763;48.730;9.136;2024-01-30T09:27:34;18.73;;;12.18;;
31112;SDS011;17763;48.730;9.136;2024-01-30T09:30:00;17.25;;;11.07;;
31112;SDS011;17763;48.730;9.136;2024-01-30T09:32:26;16.67;;;11.25;;
31112;SDS011;17763;48.730;9.136;2024-01-30T09:34:51;21.33;;;13.25;;
31112;SDS011;17763;48.730;9.136;2024-01-30T09:37:17;18.17;;;11.50;;
31112;SDS011;17763;48.730;9.136;2024-01-30T09:39:45;20.73;;;12.90;;
31112;SDS011;17763;48.730;9.136;2024-01-30T09:45:09;18.52;;;9.30;;
31112;SDS011;17763;48.730;9.136;2024-01-30T09:47:42;15.07;;;9.35;;
31112;SDS011;17763;48.730;9.136;2024-01-30T09:50:09;15.70;;;9.00;;
31112;SDS011;17763;48.730;9.136;2024-01-30T09:52:37;13.70;;;8.73;;
31112;SDS011;17763;48.730;9.136;2024-01-30T09:55:04;11.73;;;8.70;;
31112;SDS011;17763;48.730;9.136;2024-01-30T09:57:30;17.60;;;8.82;;
31112;SDS011;17763;48.730;9.136;2024-01-30T09:59:56;9.75;;;8.55;;
31112;SDS011;17763;48.730;9.136;2024-01-30T10:02:22;17.00;;;8.30;;
31112;SDS011;17763;48.730;9.136;2024-01-30T10:04:48;12.73;;;7.43;;
31112;SDS011;17763;48.730;9.136;2024-01-30T10:07:15;12.95;;;7.45;;
31112;SDS011;17763;48.730;9.136;2024-01-30T10:09:41;9.60;;;5.20;;
31112;SDS011;17763;48.730;9.136;2024-01-30T10:12:08;10.10;;;5.15;;
31112;SDS011;17763;48.730;9.136;2024-01-30T10:14:37;7.13;;;5.25;;
31112;SDS011;17763;48.730;9.136;2024-01-30T10:17:09;7.00;;;4.85;;
31112;SDS011;17763;48.730;9.136;2024-01-30T10:19:37;5.70;;;4.85;;
31112;SDS011;17763;48.730;9.136;2024-01-30T10:22:03;5.60;;;5.10;;
31112;SDS011;17763;48.730;9.136;2024-01-30T10:24:29;5.95;;;5.35;;
31112;SDS011;17763;48.730;9.136;2024-01-30T10:26:58;8.20;;;4.90;;
31112;SDS011;17763;48.730;9.136;2024-01-30T10:29:24;6.65;;;4.47;;
31112;SDS011;17763;48.730;9.136;2024-01-30T10:31:59;8.60;;;5.38;;
31112;SDS011;17763;48.730;9.136;2024-01-30T10:34:25;9.60;;;3.38;;
31112;SDS011;17763;48.730;9.136;2024-01-30T10:36:51;5.50;;;3.25;;
31112;SDS011;17763;48.730;9.136;2024-01-30T10:39:38;6.30;;;3.33;;
31112;SDS011;17763;48.730;9.136;2024-01-30T10:42:05;3.85;;;2.97;;
31112;SDS011;17763;48.730;9.136;2024-01-30T10:44:44;4.00;;;3.25;;
31112;SDS011;17763;48.730;9.136;2024-01-30T10:49:41;4.93;;;2.95;;
31112;SDS011;17763;48.730;9.136;2024-01-30T10:52:11;3.85;;;2.60;;
31112;SDS011;17763;48.730;9.136;2024-01-30T10:54:41;4.18;;;3.25;;
31112;SDS011;17763;48.730;9.136;2024-01-30T10:57:12;5.05;;;3.13;;
31112;SDS011;17763;48.730;9.136;2024-01-30T10:59:40;4.95;;;3.20;;
31112;SDS011;17763;48.730;9.136;2024-01-30T11:02:07;6.90;;;2.80;;
31112;SDS011;17763;48.730;9.136;2024-01-30T11:04:38;3.13;;;2.83;;
31112;SDS011;17763;48.730;9.136;2024-01-30T11:07:18;3.30;;;2.45;;
31112;SDS011;17763;48.730;9.136;2024-01-30T11:09:49;6.43;;;2.70;;
31112;SDS011;17763;48.730;9.136;2024-01-30T11:12:28;7.22;;;3.10;;
31112;SDS011;17763;48.730;9.136;2024-01-30T11:15:07;6.43;;;2.83;;
31112;SDS011;17763;48.730;9.136;2024-01-30T11:17:45;3.20;;;2.90;;
31112;SDS011;17763;48.730;9.136;2024-01-30T11:20:11;3.60;;;2.72;;
31112;SDS011;17763;48.730;9.136;2024-01-30T11:22:40;3.80;;;2.88;;
31112;SDS011;17763;48.730;9.136;2024-01-30T11:25:32;3.45;;;2.67;;
31112;SDS011;17763;48.730;9.136;2024-01-30T11:27:58;5.53;;;3.47;;
31112;SDS011;17763;48.730;9.136;2024-01-30T11:30:27;4.15;;;2.75;;
31112;SDS011;17763;48.730;9.136;2024-01-30T11:33:13;6.00;;;2.40;;
31112;SDS011;17763;48.730;9.136;2024-01-30T11:35:43;2.70;;;2.47;;
31112;SDS011;17763;48.730;9.136;2024-01-30T11:38:13;4.72;;;2.50;;
31112;SDS011;17763;48.730;9.136;2024-01-30T11:40:40;3.45;;;2.47;;
31112;SDS011;17763;48.730;9.136;2024-01-30T11:43:06;4.70;;;3.00;;
31112;SDS011;17763;48.730;9.136;2024-01-30T11:45:35;3.70;;;2.58;;
31112;SDS011;17763;48.730;9.136;2024-01-30T11:48:02;4.22;;;2.83;;
31112;SDS011;17763;48.730;9.136;2024-01-30T11:50:33;3.85;;;2.10;;
31112;SDS011;17763;48.730;9.136;2024-01-30T11:52:59;2.95;;;2.65;;
31112;SDS011;17763;48.730;9.136;2024-01-30T11:55:25;4.18;;;2.38;;
31112;SDS011;17763;48.730;9.136;2024-01-30T11:57:52;8.00;;;2.70;;
31112;SDS011;17763;48.730;9.136;2024-01-30T12:00:23;5.00;;;2.30;;
31112;SDS011;17763;48.730;9.136;2024-01-30T12:02:52;4.25;;;3.85;;
31112;SDS011;17763;48.730;9.136;2024-01-30T12:05:25;3.17;;;2.30;;
31112;SDS011;17763;48.730;9.136;2024-01-30T12:07:53;5.25;;;2.95;;
31112;SDS011;17763;48.730;9.136;2024-01-30T12:10:19;3.03;;;2.60;;
31112;SDS011;17763;48.730;9.136;2024-01-30T12:12:47;5.15;;;2.50;;
31112;SDS011;17763;48.730;9.136;2024-01-30T12:15:16;2.90;;;2.60;;
31112;SDS011;17763;48.730;9.136;2024-01-30T12:17:46;4.22;;;2.42;;
31112;SDS011;17763;48.730;9.136;2024-01-30T12:20:13;5.65;;;2.50;;
31112;SDS011;17763;48.730;9.136;2024-01-30T12:22:43;5.45;;;2.80;;
31112;SDS011;17763;48.730;9.136;2024-01-30T12:27:39;2.95;;;2.65;;
31112;SDS011;17763;48.730;9.136;2024-01-30T12:32:38;2.75;;;2.55;;
31112;SDS011;17763;48.730;9.136;2024-01-30T12:35:12;3.47;;;2.70;;
31112;SDS011;17763;48.730;9.136;2024-01-30T12:37:43;4.07;;;3.00;;
31112;SDS011;17763;48.730;9.136;2024-01-30T12:42:39;2.75;;;2.50;;
31112;SDS011;17763;48.730;9.136;2024-01-30T12:45:11;7.03;;;3.08;;
31112;SDS011;17763;48.730;9.136;2024-01-30T12:47:36;5.10;;;3.05;;
31112;SDS011;17763;48.730;9.136;2024-01-30T12:50:02;3.92;;;2.80;;
31112;SDS011;17763;48.730;9.136;2024-01-30T12:52:28;5.88;;;2.60;;
31112;SDS011;17763;48.730;9.136;2024-01-30T12:54:54;6.10;;;2.60;;
31112;SDS011;17763;48.730;9.136;2024-01-30T12:57:20;6.72;;;2.90;;
31112;SDS011;17763;48.730;9.136;2024-01-30T12:59:46;3.67;;;2.40;;
31112;SDS011;17763;48.730;9.136;2024-01-30T13:02:15;5.00;;;2.80;;
31112;SDS011;17763;48.730;9.136;2024-01-30T13:04:45;4.80;;;2.80;;
31112;SDS011;17763;48.730;9.136;2024-01-30T13:07:12;5.03;;;3.05;;
31112;SDS011;17763;48.730;9.136;2024-01-30T13:09:37;3.72;;;3.08;;
31112;SDS011;17763;48.730;9.136;2024-01-30T13:12:03;2.60;;;2.40;;
31112;SDS011;17763;48.730;9.136;2024-01-30T13:14:32;5.63;;;2.50;;
31112;SDS011;17763;48.730;9.136;2024-01-30T13:16:57;2.75;;;2.40;;
31112;SDS011;17763;48.730;9.136;2024-01-30T13:19:26;2.83;;;2.53;;
31112;SDS011;17763;48.730;9.136;2024-01-30T13:21:52;2.80;;;2.60;;
31112;SDS011;17763;48.730;9.136;2024-01-30T13:24:17;8.85;;;2.50;;
31112;SDS011;17763;48.730;9.136;2024-01-30T13:26:46;2.78;;;2.50;;
31112;SDS011;17763;48.730;9.136;2024-01-30T13:29:12;2.72;;;2.33;;
31112;SDS011;17763;48.730;9.136;2024-01-30T13:31:37;2.80;;;2.50;;
31112;SDS011;17763;48.730;9.136;2024-01-30T13:34:04;6.10;;;2.50;;
31112;SDS011;17763;48.730;9.136;2024-01-30T13:36:31;2.80;;;2.60;;
31112;SDS011;17763;48.730;9.136;2024-01-30T13:38:57;7.65;;;2.42;;
31112;SDS011;17763;48.730;9.136;2024-01-30T13:41:23;2.97;;;1.98;;
31112;SDS011;17763;48.730;9.136;2024-01-30T13:43:51;5.97;;;2.75;;
31112;SDS011;17763;48.730;9.136;2024-01-30T13:46:17;5.38;;;2.33;;
31112;SDS011;17763;48.730;9.136;2024-01-30T13:48:45;3.92;;;2.40;;
31112;SDS011;17763;48.730;9.136;2024-01-30T13:51:11;2.50;;;2.30;;
31112;SDS011;17763;48.730;9.136;2024-01-30T13:53:38;5.18;;;2.25;;
31112;SDS011;17763;48.730;9.136;2024-01-30T13:56:04;4.95;;;2.72;;
31112;SDS011;17763;48.730;9.136;2024-01-30T13:58:31;5.63;;;2.80;;
31112;SDS011;17763;48.730;9.136;2024-01-30T14:00:58;5.72;;;2.60;;
31112;SDS011;17763;48.730;9.136;2024-01-30T14:03:26;3.97;;;2.30;;
31112;SDS011;17763;48.730;9.136;2024-01-30T14:05:52;5.10;;;2.70;;
31112;SDS011;17763;48.730;9.136;2024-01-30T14:08:18;3.78;;;2.50;;
31112;SDS011;17763;48.730;9.136;2024-01-30T14:10:45;3.63;;;2.90;;
31112;SDS011;17763;48.730;9.136;2024-01-30T14:13:10;4.75;;;2.65;;
31112;SDS011;17763;48.730;9.136;2024-01-30T14:15:39;3.90;;;2.50;;
31112;SDS011;17763;48.730;9.136;2024-01-30T14:18:07;2.75;;;2.55;;
31112;SDS011;17763;48.730;9.136;2024-01-30T14:20:33;3.13;;;2.47;;
31112;SDS011;17763;48.730;9.136;2024-01-30T14:23:01;3.53;;;2.50;;
31112;SDS011;17763;48.730;9.136;2024-01-30T14:25:27;2.92;;;2.50;;
31112;SDS011;17763;48.730;9.136;2024-01-30T14:27:55;3.20;;;2.90;;
31112;SDS011;17763;48.730;9.136;2024-01-30T14:30:21;4.25;;;3.20;;
31112;SDS011;17763;48.730;9.136;2024-01-30T14:32:47;4.63;;;2.90;;
31112;SDS011;17763;48.730;9.136;2024-01-30T14:35:13;4.72;;;3.13;;
31112;SDS011;17763;48.730;9.136;2024-01-30T14:37:39;4.90;;;3.15;;
31112;SDS011;17763;48.730;9.136;2024-01-30T14:40:05;3.40;;;3.10;;
31112;SDS011;17763;48.730;9.136;2024-01-30T14:42:34;4.70;;;3.00;;
31112;SDS011;17763;48.730;9.136;2024-01-30T14:45:01;5.38;;;2.95;;
31112;SDS011;17763;48.730;9.136;2024-01-30T14:47:27;7.03;;;2.50;;
31112;SDS011;17763;48.730;9.136;2024-01-30T14:49:53;3.80;;;2.58;;